Orbital elements of COSMOS 342
| Launched | 24 April 1970 |
| Flight ended | – |
| Launch site | Plesetsk Missile and Space Complex, Russia |
| Owner | Commonwealth of Independent States (former USSR) |
| NORAD ID | 4389 |
| Date fetched |
Epoch osculation |
Inc. [°] |
Ecc. | RA asc node [hr] |
Arg Peri. [°] |
Mean anom [°] |
Mean motion [rev/day] |
Abs. mag |
| Date fetched |
Epoch osculation |
Inc. [°] |
Ecc. | RA asc node [hr] |
Arg Peri. [°] |
Mean anom [°] |
Mean motion [rev/day] |
Abs. mag |
| 2026 May 07 17:58 | 2026 May 05 07:08:32 | 74.0291 | 0.01016 | 4.6557 | 319.0661 | 151.9592 | 12.68339 | – |
| 2026 May 06 17:57 | 2026 May 05 07:08:32 | 74.0291 | 0.01016 | 4.6557 | 319.0661 | 151.9592 | 12.68339 | – |
| 2026 May 05 17:57 | 2026 May 05 07:08:32 | 74.0291 | 0.01016 | 4.6557 | 319.0661 | 151.9592 | 12.68339 | – |
| 2026 May 04 17:57 | 2026 Apr 30 15:47:24 | 74.0283 | 0.01016 | 5.0810 | 326.2413 | 151.9592 | 12.68339 | – |
| 2026 May 03 17:57 | 2026 Apr 30 15:47:24 | 74.0283 | 0.01016 | 5.0810 | 326.2413 | 151.9592 | 12.68339 | – |
| 2026 May 02 17:57 | 2026 Apr 30 15:47:24 | 74.0283 | 0.01016 | 5.0810 | 326.2413 | 151.9592 | 12.68339 | – |
| 2026 May 01 17:56 | 2026 Apr 30 15:47:24 | 74.0283 | 0.01016 | 5.0810 | 326.2413 | 151.9592 | 12.68339 | – |
| 2026 Apr 30 17:56 | 2026 Apr 30 15:47:24 | 74.0283 | 0.01016 | 5.0810 | 326.2413 | 151.9592 | 12.68339 | – |
| 2026 Apr 29 17:57 | 2026 Apr 24 08:15:27 | 74.0270 | 0.01015 | 5.6599 | 336.0276 | 151.9592 | 12.68339 | – |
| 2026 Apr 28 17:56 | 2026 Apr 24 08:15:27 | 74.0270 | 0.01015 | 5.6599 | 336.0276 | 151.9592 | 12.68339 | – |
| 2026 Apr 27 17:58 | 2026 Apr 24 08:15:27 | 74.0270 | 0.01015 | 5.6599 | 336.0276 | 151.9592 | 12.68339 | – |
| 2026 Apr 26 17:58 | 2026 Apr 24 08:15:27 | 74.0270 | 0.01015 | 5.6599 | 336.0276 | 151.9592 | 12.68339 | – |
| 2026 Apr 25 17:58 | 2026 Apr 24 08:15:27 | 74.0270 | 0.01015 | 5.6599 | 336.0276 | 151.9592 | 12.68339 | – |
| 2026 Apr 24 17:59 | 2026 Apr 24 08:15:27 | 74.0270 | 0.01015 | 5.6599 | 336.0276 | 151.9592 | 12.68339 | – |
| 2026 Apr 23 17:57 | 2026 Apr 19 08:59:35 | 74.0262 | 0.01014 | 6.1155 | 343.7205 | 151.9592 | 12.68339 | – |
| 2026 Apr 22 17:57 | 2026 Apr 19 08:59:35 | 74.0262 | 0.01014 | 6.1155 | 343.7205 | 151.9592 | 12.68339 | – |
| 2026 Apr 21 17:57 | 2026 Apr 19 08:59:35 | 74.0262 | 0.01014 | 6.1155 | 343.7205 | 151.9592 | 12.68339 | – |
| 2026 Apr 20 17:57 | 2026 Apr 19 08:59:35 | 74.0262 | 0.01014 | 6.1155 | 343.7205 | 151.9592 | 12.68339 | – |
| 2026 Apr 19 17:58 | 2026 Apr 19 08:59:35 | 74.0262 | 0.01014 | 6.1155 | 343.7205 | 151.9592 | 12.68339 | – |
| 2026 Apr 18 17:56 | 2026 Apr 13 06:30:23 | 74.0254 | 0.01013 | 6.6752 | 353.1891 | 151.9592 | 12.68339 | – |
| 2026 Apr 16 17:57 | 2026 Apr 13 06:30:23 | 74.0254 | 0.01013 | 6.6752 | 353.1891 | 151.9592 | 12.68339 | – |
| 2026 Apr 14 17:57 | 2026 Apr 13 06:30:23 | 74.0254 | 0.01013 | 6.6752 | 353.1891 | 151.9592 | 12.68339 | – |
| 2026 Apr 13 17:57 | 2026 Apr 13 06:30:23 | 74.0254 | 0.01013 | 6.6752 | 353.1891 | 151.9592 | 12.68339 | – |
| 2026 Apr 12 17:57 | 2026 Apr 08 11:34:58 | 74.0252 | 0.01012 | 7.1143 | 0.6297 | 151.9592 | 12.68339 | – |
| 2026 Apr 11 17:57 | 2026 Apr 08 11:34:58 | 74.0252 | 0.01012 | 7.1143 | 0.6297 | 151.9592 | 12.68339 | – |
| 2026 Apr 10 17:58 | 2026 Apr 08 11:34:58 | 74.0252 | 0.01012 | 7.1143 | 0.6297 | 151.9592 | 12.68339 | – |